Tom Price Western Australia
Tom Price Western Australia
Language:  English
Updated21/02/2018 3:25pm 
 

METAR Reports

YPPD - Port Hedland Arr, Australia
Distance from station: NNE 256km
Updated: Wed, 21-Feb-2018 3:00pm AWST
Partly cloudy
Partly cloudy
 Wind from NW
Wind: NW 26 km/h
Temperature: 32°C
Heat Index: 38°C
Dew Point: 24°C
Humidity: 63%
Barometer: 1003 hPa
Clouds: Partly cloudy
Visibility: 10 km
Cloud details: Partly cloudy 1676 m
2018/02/21 07:00 YPPD 210700Z AUTO 32014KT 9999 // SCT055 32/24 Q1003
YPLM - Learmouth, Australia
Distance from station: W 351km
Updated: Wed, 21-Feb-2018 3:00pm AWST
Clear
Clear
 Wind from WSW
Wind: WSW 31 km/h
Temperature: 32°C
Heat Index: 34°C
Dew Point: 20°C
Humidity: 49%
Barometer: 1003 hPa
Clouds: Clear
Visibility: 10 km
2018/02/21 07:00 YPLM 210700Z AUTO 25017KT 9999 // NCD 32/20 Q1003
YTEF - Telfer Airport, Australia
Distance from station: E 497km
Updated: Wed, 21-Feb-2018 3:00pm AWST
Clear
Clear
 Wind from NW
Wind: NW 19 km/h
Temperature: 33°C
Dew Point: 17°C
Humidity: 38%
Barometer: 1004 hPa
Clouds: Clear
Visibility: 10 km
2018/02/21 07:00 YTEF 210700Z AUTO 31010KT 9999 // NCD 33/17 Q1004
 
YBRM - Broome Airport, Australia
Distance from station: NE 702km
Updated: Wed, 21-Feb-2018 3:00pm AWST
Few Clouds
Few Clouds
 Wind from W
Wind: W 20 km/h
Temperature: 30°C
Heat Index: 36°C
Dew Point: 25°C
Humidity: 75%
Barometer: 1004 hPa
Clouds: Few Clouds
Visibility: 10 km
Cloud details: Few Clouds 488 m
Mostly cloudy 7620 m
Mostly cloudy 10973 m
Few Clouds 579 m
2018/02/21 07:00 YBRM 210700Z 27011KT 9999 FEW016 BKN250 BKN360 FEW019CB 30/25 Q1004
YGEL - Geraldton, Australia
Distance from station: SSW 763km
Updated: Wed, 21-Feb-2018 3:00pm AWST
Clear
Clear
 Wind from S
Wind: S 37 km/h
Temperature: 30°C
Heat Index: 29°C
Dew Point: 15°C
Humidity: 40%
Barometer: 1005 hPa
Summary: Clear
Visibility: greater than 10 km
2018/02/21 07:00 YGEL 210700Z 19020KT CAVOK 30/15 Q1005
YCIN - Curtin/Derby, Australia
Distance from station: NE 854km
Updated: Wed, 21-Feb-2018 3:00pm AWST
Clear
Clear
 Wind from NNW
Wind: NNW 17 km/h
Temperature: 32°C
Heat Index: 40°C
Dew Point: 25°C
Humidity: 67%
Barometer: 1004 hPa
Clouds: Clear
Visibility: 10 km
2018/02/21 07:00 YCIN 210700Z AUTO 33009KT 9999 // NCD 32/25 Q1004